Jump to content


SOUTHWEST AIRLINES FLIGHT WN1064 FLOWN ON 09-15-2017 BY CAPTAIN TYLER HANUS

Pilot StatsCaptain Tyler Hanus (LDP525) • 244.8 total hours • 53 total flights [View Logbook]
FLIGHT DETAILS
StatusReceived and approved on 2017-09-15 at 14:09:33
Origin AirportHobby (KHOU) • Houston, Texas, United States (46 feet MSL)
Filed Flight PlanKHOU IAH J86 JCT Q20 FUSCO J15 INK J108 INW J86 BLD KLAS
Destination AirportMcCarran Intl (KLAS) • Las Vegas, Nevada, United States (2,180 feet MSL)
Alternate AirportNone Filed
AirlineSouthwest Airlines
AircraftBoeing 737-800 | Winglets (73H / B737-800)
FS Aircraft UsedBoeing 737-8H4NGX Southwest Airlines (Warrior One) Winglets
Cruising AltitudeFL340
Distance Flown1,071 nautical miles
Passengers Onboard94 passengers (58.02% full)
DEPARTURE DETAILS
Time Out10:12:51
Taxi Data137,867 lbs total with 24,947 lbs of fuel onboard
Takeoff Data10:20:41 (8 minutes after leaving gate/ramp) • 137,423 lbs total • 5° pitch at 142 knots
Departure METARKHOU 151353Z 12006KT 10SM FEW020 27/22 A2994 RMK AO2 SLP142 T02720217
ARRIVAL DETAILS
Landing Data11:21:50 • 119,667 lbs total • 2° pitch doing 126 knots at a rate of -89.20 feet/minute with 6,463 lbs of fuel onboard
Time In11:28:23 (7 minutes after landing)
Ramp Weight119,383 lbs total
Total Fuel Used18,484 lbs
Total Block Time02:11:30 (2.2 hours) while 14 minutes were spent on the ground
Arrival METARKLAS 151756Z 19007KT 10SM FEW120 27/08 A2981 RMK AO2 SLP070 T02720078 10272 20217 50006
MISCELLANEOUS DETAILS
LiveDISPATCH Version4.8.3.1
FS Version
FSUIPC Version4.97
OS VersionWindows 7 32-bit
Screen Resolution1360 x 768
Pilot's CommentsNo Comments Reported
FLIGHT MAP